aviador You're here:

KOZR Decoded Metar

OZARK/CAIRNS AAF in AL, USA
Report Time2018-01-18 09:56:00
UTC Time2018-01-18 10:09:03
Flight Rules vfr VFR
Wind310° at 05 kt
W.Decomp.*RWY 36: 3.4 kt HW 3.7 kt LCW
RWY 24: 1.5 kt HW 4.8 kt RCW
W.Rank310° ranks 6
Current wind is below 310° avg. (6.0)
Visibility9999 m
Phenomena:N/A
Clouds:N/A
Expected CloudBase > 2,400 ft AGL from Temp-Dew spread
CeilingNone
Temp-7°C (ISA -21)
Dew Point-13°C (63% RH)
AAT-12.0°C
QNH1032 hPa
Density Alt-2,966 ft
Elevation305 ft
Report Wrong Elevation
Raw Report
KOZR 180956Z AUTO 31005KT 10SM CLR M07/M13 A3048 RMK AO2 SLP328
T10671128=

Extra information for KOZR:More info

Metar Taf Metar & Taf Last 4 Metars F.Rules Stats Wind Profile Meteogram Temp Stats Airport Information Weather charts Add Link Nearby VenuesMetar ALERT Operation Metar Decoded Social comments

AIRNAV info for KOZR